Time;durP1;ratioP1;P1;durP2;ratioP2;P2;SDS_P1;SDS_P2;PMS_P1;PMS_P2;Temp;Humidity;BMP_temperature;BMP_pressure;BME280_temperature;BME280_humidity;BME280_pressure;Samples;Min_cycle;Max_cycle;Signal;HPM_P1;HPM_P2
2023/06/08 00:00:10;;;;;;;7.40;3.63;;;;;;;22.71;nan;101601.97;5043794;28;20648;-37
2023/06/08 00:02:36;;;;;;;7.38;3.58;;;;;;;22.72;nan;101590.25;5047251;28;20036;-37
2023/06/08 00:05:03;;;;;;;7.07;4.00;;;;;;;22.73;nan;101604.47;5051696;28;20163;-37
2023/06/08 00:07:29;;;;;;;7.47;3.58;;;;;;;22.73;nan;101601.78;5046586;28;20020;-37
2023/06/08 00:09:57;;;;;;;7.63;3.90;;;;;;;22.74;nan;101599.00;5048393;28;20055;-37
2023/06/08 00:12:24;;;;;;;8.02;4.45;;;;;;;22.71;nan;101601.09;5048830;28;20407;-37
2023/06/08 00:14:50;;;;;;;8.60;3.88;;;;;;;22.67;nan;101600.56;5050810;28;20028;-37
2023/06/08 00:17:15;;;;;;;7.07;3.60;;;;;;;22.58;nan;101604.13;5051494;28;20025;-37
2023/06/08 00:19:43;;;;;;;8.00;3.55;;;;;;;22.59;nan;101606.66;5051371;28;20063;-36
2023/06/08 00:22:12;;;;;;;8.45;4.03;;;;;;;22.55;nan;101601.75;5047966;28;20033;-37
2023/06/08 00:24:38;;;;;;;7.40;4.28;;;;;;;22.57;nan;101605.13;5047468;28;20124;-37
2023/06/08 00:27:06;;;;;;;10.07;4.10;;;;;;;22.49;nan;101598.63;5050423;28;20117;-37
2023/06/08 00:29:32;;;;;;;5.68;3.72;;;;;;;22.45;nan;101604.44;5048020;28;20033;-36
2023/06/08 00:31:58;;;;;;;8.15;3.78;;;;;;;22.37;nan;101603.31;5048610;28;20033;-36
2023/06/08 00:34:25;;;;;;;7.38;4.03;;;;;;;22.41;nan;101601.19;5048612;28;20447;-37
2023/06/08 00:36:51;;;;;;;6.50;3.67;;;;;;;22.42;nan;101596.69;5047646;28;20025;-37
2023/06/08 00:39:16;;;;;;;6.68;3.80;;;;;;;22.43;nan;101599.25;5047294;28;20403;-36
2023/06/08 00:41:42;;;;;;;8.00;4.78;;;;;;;22.37;nan;101597.09;5045479;28;20070;-36
2023/06/08 00:44:08;;;;;;;7.15;4.10;;;;;;;22.38;nan;101598.78;5048182;28;20032;-37
2023/06/08 00:46:35;;;;;;;7.35;4.57;;;;;;;22.36;nan;101595.41;5048443;28;20021;-37
2023/06/08 00:49:02;;;;;;;7.90;3.58;;;;;;;22.33;nan;101593.88;5047478;28;20117;-37
2023/06/08 00:51:31;;;;;;;8.07;4.03;;;;;;;22.31;nan;101586.97;5048526;28;20052;-37
2023/06/08 00:53:57;;;;;;;10.05;4.95;;;;;;;22.28;nan;101590.78;5049058;28;20098;-37
2023/06/08 00:56:26;;;;;;;8.30;3.80;;;;;;;22.24;nan;101594.72;5050178;28;20121;-37
2023/06/08 00:59:00;;;;;;;9.18;4.38;;;;;;;22.14;nan;101588.56;5051642;28;20035;-37
2023/06/08 01:01:29;;;;;;;6.90;3.70;;;;;;;22.02;nan;101591.41;5046355;28;20540;-36
2023/06/08 01:04:05;;;;;;;5.85;3.70;;;;;;;22.01;nan;101588.84;5048899;28;20033;-37
2023/06/08 01:06:53;;;;;;;7.75;4.05;;;;;;;21.91;nan;101592.38;5043004;28;20060;-36
2023/06/08 01:09:37;;;;;;;9.27;3.72;;;;;;;21.81;nan;101588.88;5050072;28;20025;-36
2023/06/08 01:12:27;;;;;;;7.03;4.18;;;;;;;21.91;nan;101583.53;5045381;28;20032;-36
2023/06/08 01:15:00;;;;;;;6.57;4.00;;;;;;;21.88;nan;101587.31;5042637;28;20525;-37
2023/06/08 01:17:36;;;;;;;6.85;3.88;;;;;;;21.89;nan;101580.97;5045653;28;20487;-37
2023/06/08 01:20:18;;;;;;;8.48;4.22;;;;;;;21.83;nan;101578.00;5043588;28;20122;-37
2023/06/08 01:22:56;;;;;;;7.53;4.32;;;;;;;21.74;nan;101577.03;5039536;28;20159;-36
2023/06/08 01:25:26;;;;;;;9.43;4.03;;;;;;;21.71;nan;101578.16;5047948;28;20487;-37
2023/06/08 01:27:58;;;;;;;6.93;4.13;;;;;;;21.61;nan;101580.03;5044704;28;20119;-37
2023/06/08 01:30:25;;;;;;;8.93;4.07;;;;;;;21.51;nan;101577.31;5043994;28;20092;-37
2023/06/08 01:32:51;;;;;;;10.10;4.28;;;;;;;21.41;nan;101571.06;5048066;28;20036;-36
2023/06/08 01:35:16;;;;;;;10.48;4.13;;;;;;;21.31;nan;101569.25;5048462;28;20033;-36
2023/06/08 01:37:47;;;;;;;9.60;4.72;;;;;;;21.40;nan;101570.25;5048241;28;20053;-37
2023/06/08 01:40:25;;;;;;;9.68;4.43;;;;;;;21.37;nan;101570.50;5042918;28;20059;-37
2023/06/08 01:42:52;;;;;;;9.75;4.18;;;;;;;21.45;nan;101567.13;5046010;28;20028;-37
2023/06/08 01:45:25;;;;;;;7.85;4.28;;;;;;;21.50;nan;101564.91;5047455;28;20017;-37
2023/06/08 01:48:01;;;;;;;7.00;4.57;;;;;;;21.50;nan;101559.53;5044209;28;20059;-37
2023/06/08 01:50:28;;;;;;;9.23;4.20;;;;;;;21.53;nan;101567.31;5043823;28;20029;-37
2023/06/08 01:52:56;;;;;;;8.20;4.28;;;;;;;21.54;nan;101563.63;5044027;28;20112;-37
2023/06/08 01:55:22;;;;;;;6.70;4.05;;;;;;;21.53;nan;101566.44;5045709;28;20024;-37
2023/06/08 01:57:48;;;;;;;8.10;4.18;;;;;;;21.51;nan;101566.59;5046614;28;20403;-37
2023/06/08 02:00:16;;;;;;;8.07;4.63;;;;;;;21.39;nan;101568.56;5046660;28;20036;-37
2023/06/08 02:02:42;;;;;;;8.60;4.47;;;;;;;21.32;nan;101568.25;5043074;28;20040;-36
2023/06/08 02:05:09;;;;;;;7.72;4.32;;;;;;;21.27;nan;101565.16;5045572;28;20033;-36
2023/06/08 02:07:36;;;;;;;7.97;4.53;;;;;;;21.20;nan;101569.38;5046359;28;20047;-36
2023/06/08 02:10:06;;;;;;;9.48;5.03;;;;;;;21.17;nan;101575.00;5043784;28;20526;-36
2023/06/08 02:12:31;;;;;;;9.80;5.03;;;;;;;21.11;nan;101578.22;5046838;28;20068;-36
2023/06/08 02:14:57;;;;;;;10.93;4.65;;;;;;;20.99;nan;101575.66;5046513;28;20069;-36
2023/06/08 02:17:33;;;;;;;10.23;5.50;;;;;;;20.83;nan;101567.31;5046892;28;20096;-36
2023/06/08 02:20:00;;;;;;;8.05;5.32;;;;;;;20.77;nan;101570.53;5046517;28;20059;-36
2023/06/08 02:22:28;;;;;;;8.25;5.00;;;;;;;20.68;nan;101570.31;5041430;28;20037;-36
2023/06/08 02:24:53;;;;;;;9.30;4.75;;;;;;;20.58;nan;101566.78;5034843;28;20057;-37
2023/06/08 02:27:19;;;;;;;11.40;5.10;;;;;;;20.55;nan;101559.88;5043320;28;20454;-36
2023/06/08 02:29:44;;;;;;;8.93;4.70;;;;;;;20.66;nan;101566.94;5039012;28;20041;-36
2023/06/08 02:32:10;;;;;;;9.57;4.70;;;;;;;20.61;nan;101562.97;5042620;28;20048;-36
2023/06/08 02:34:37;;;;;;;9.50;4.55;;;;;;;20.53;nan;101563.66;5046110;28;20037;-37
2023/06/08 02:37:03;;;;;;;7.95;4.78;;;;;;;20.38;nan;101563.16;5046413;28;20028;-36
2023/06/08 02:39:32;;;;;;;10.57;5.05;;;;;;;20.37;nan;101564.97;5047160;28;20061;-37
2023/06/08 02:41:57;;;;;;;9.18;5.47;;;;;;;20.33;nan;101563.56;5045455;28;20029;-36
2023/06/08 02:44:23;;;;;;;12.77;5.15;;;;;;;20.33;nan;101550.22;5044717;28;20041;-36
2023/06/08 02:46:48;;;;;;;13.15;5.32;;;;;;;20.36;nan;101565.97;5045237;28;20028;-36
2023/06/08 02:49:14;;;;;;;8.77;4.40;;;;;;;20.39;nan;101565.69;5047447;28;20033;-36
2023/06/08 02:51:42;;;;;;;9.32;4.68;;;;;;;20.40;nan;101564.72;5046376;28;20491;-36
2023/06/08 02:54:07;;;;;;;8.98;5.30;;;;;;;20.44;nan;101567.13;5046112;28;20356;-35
2023/06/08 02:56:33;;;;;;;7.50;4.32;;;;;;;20.50;nan;101555.88;5046698;28;20475;-36
2023/06/08 02:58:58;;;;;;;9.80;4.85;;;;;;;20.54;nan;101563.53;5043466;28;20098;-37
2023/06/08 03:01:25;;;;;;;8.10;4.80;;;;;;;20.46;nan;101566.00;5039217;28;20043;-36
2023/06/08 03:03:53;;;;;;;8.98;4.88;;;;;;;20.42;nan;101569.91;5044169;28;20035;-36
2023/06/08 03:06:19;;;;;;;10.43;5.25;;;;;;;20.52;nan;101561.94;5040080;28;20047;-37
2023/06/08 03:08:47;;;;;;;10.65;5.22;;;;;;;20.59;nan;101563.13;5049630;28;20028;-36
2023/06/08 03:11:14;;;;;;;8.63;4.53;;;;;;;20.51;nan;101562.94;5048817;28;20136;-36
2023/06/08 03:13:39;;;;;;;10.70;5.35;;;;;;;20.44;nan;101567.97;5043338;28;20056;-36
2023/06/08 03:16:05;;;;;;;9.05;5.45;;;;;;;20.36;nan;101565.13;5046902;28;20501;-36
2023/06/08 03:18:30;;;;;;;7.35;5.00;;;;;;;20.36;nan;101565.97;5049298;28;20020;-36
2023/06/08 03:20:58;;;;;;;9.35;4.38;;;;;;;20.41;nan;101571.75;5044885;28;20025;-37
2023/06/08 03:23:23;;;;;;;8.52;4.90;;;;;;;20.45;nan;101564.31;5045569;28;20414;-36
2023/06/08 03:25:50;;;;;;;9.65;5.60;;;;;;;20.39;nan;101565.69;5044666;28;20472;-37
2023/06/08 03:28:18;;;;;;;10.18;5.88;;;;;;;20.43;nan;101570.78;5044567;28;20479;-36
2023/06/08 03:30:44;;;;;;;10.55;5.57;;;;;;;20.43;nan;101560.09;5041570;28;20474;-36
2023/06/08 03:33:14;;;;;;;10.95;4.82;;;;;;;20.44;nan;101551.09;5039597;28;20036;-35
2023/06/08 03:35:40;;;;;;;11.35;5.15;;;;;;;20.49;nan;101557.72;5041929;28;20179;-36
2023/06/08 03:38:05;;;;;;;8.60;4.60;;;;;;;20.47;nan;101566.88;5041670;28;21844;-36
2023/06/08 03:40:31;;;;;;;10.05;5.60;;;;;;;20.50;nan;101561.25;5047750;28;20029;-36
2023/06/08 03:42:56;;;;;;;15.88;5.95;;;;;;;20.49;nan;101557.72;5044223;28;20040;-36
2023/06/08 03:45:22;;;;;;;11.73;6.22;;;;;;;20.38;nan;101563.16;5042019;28;20040;-36
2023/06/08 03:47:47;;;;;;;8.85;5.18;;;;;;;20.35;nan;101553.56;5041192;28;20546;-36
2023/06/08 03:50:13;;;;;;;10.60;4.97;;;;;;;20.59;nan;101555.09;5038501;28;20466;-37
2023/06/08 03:52:39;;;;;;;9.05;5.82;;;;;;;20.65;nan;101559.06;5042188;28;20043;-36
2023/06/08 03:55:08;;;;;;;8.45;4.13;;;;;;;20.70;nan;101568.38;5044527;28;20129;-36
2023/06/08 03:57:33;;;;;;;12.13;5.72;;;;;;;20.75;nan;101559.09;5045816;28;20017;-36
2023/06/08 03:59:59;;;;;;;11.05;5.00;;;;;;;20.76;nan;101563.50;5045871;28;20029;-36
2023/06/08 04:02:24;;;;;;;8.23;4.47;;;;;;;20.78;nan;101557.03;5045110;28;20056;-36
2023/06/08 04:04:50;;;;;;;12.38;5.95;;;;;;;20.79;nan;101555.22;5047500;28;20032;-36
2023/06/08 04:07:16;;;;;;;10.13;4.22;;;;;;;20.80;nan;101551.53;5042254;28;20029;-37
2023/06/08 04:09:42;;;;;;;11.77;5.15;;;;;;;20.82;nan;101555.78;5024421;28;20033;-36
2023/06/08 04:12:08;;;;;;;9.23;5.03;;;;;;;20.80;nan;101564.91;5040249;28;20044;-36
2023/06/08 04:14:34;;;;;;;9.55;5.40;;;;;;;20.74;nan;101565.44;5043486;28;20037;-36
2023/06/08 04:17:03;;;;;;;11.07;6.03;;;;;;;20.70;nan;101571.03;5044067;28;20036;-36
2023/06/08 04:19:28;;;;;;;9.82;4.97;;;;;;;20.67;nan;101568.63;5047977;28;20078;-36
2023/06/08 04:21:56;;;;;;;9.70;4.72;;;;;;;20.63;nan;101567.22;5048245;28;20021;-36
2023/06/08 04:24:23;;;;;;;11.73;5.18;;;;;;;20.61;nan;101569.19;5047637;28;20047;-36
2023/06/08 04:26:51;;;;;;;10.68;5.03;;;;;;;20.67;nan;101573.16;5050032;28;20028;-37
2023/06/08 04:29:17;;;;;;;7.28;3.90;;;;;;;20.65;nan;101562.56;5045718;28;20039;-36
2023/06/08 04:31:43;;;;;;;10.77;6.28;;;;;;;20.70;nan;101568.38;5032432;28;20057;-36
2023/06/08 04:34:11;;;;;;;10.40;5.18;;;;;;;20.69;nan;101573.88;5043482;28;20060;-36
2023/06/08 04:36:36;;;;;;;11.57;5.82;;;;;;;20.70;nan;101579.06;5030200;28;20042;-36
2023/06/08 04:39:02;;;;;;;7.32;4.63;;;;;;;20.69;nan;101579.22;5040545;28;20056;-37
2023/06/08 04:41:29;;;;;;;12.05;6.55;;;;;;;20.70;nan;101579.06;5044047;28;20037;-35
2023/06/08 04:44:01;;;;;;;7.65;5.15;;;;;;;20.69;nan;101569.34;5039875;28;20029;-34
2023/06/08 04:46:33;;;;;;;10.50;4.68;;;;;;;20.74;nan;101576.13;5033422;28;20494;-35
2023/06/08 04:48:59;;;;;;;12.60;5.00;;;;;;;20.79;nan;101572.09;5039055;28;20538;-35
2023/06/08 04:51:29;;;;;;;7.90;4.97;;;;;;;20.86;nan;101569.72;5041988;28;20033;-36
2023/06/08 04:54:03;;;;;;;9.05;5.10;;;;;;;20.94;nan;101577.06;5042724;28;20123;-35
2023/06/08 04:56:33;;;;;;;9.70;5.00;;;;;;;21.00;nan;101577.34;5036636;28;20025;-35
2023/06/08 04:59:01;;;;;;;11.43;5.47;;;;;;;21.05;nan;101587.66;5045179;28;20116;-36
2023/06/08 05:01:27;;;;;;;10.32;4.85;;;;;;;21.08;nan;101583.88;5038535;28;20029;-35
2023/06/08 05:03:52;;;;;;;9.15;4.85;;;;;;;21.09;nan;101582.88;5046681;28;20369;-36
2023/06/08 05:06:18;;;;;;;13.55;4.65;;;;;;;21.13;nan;101590.50;5040634;28;20037;-35
2023/06/08 05:08:43;;;;;;;9.18;4.90;;;;;;;21.12;nan;101588.81;5045481;28;20847;-35
2023/06/08 05:11:10;;;;;;;11.15;4.28;;;;;;;21.18;nan;101582.03;5040705;28;20034;-36
2023/06/08 05:13:36;;;;;;;12.40;5.68;;;;;;;21.22;nan;101578.13;5045401;28;20032;-36
2023/06/08 05:16:02;;;;;;;17.60;5.47;;;;;;;21.25;nan;101583.16;5046478;28;20036;-35
2023/06/08 05:18:28;;;;;;;10.88;4.95;;;;;;;21.29;nan;101575.72;5041576;28;20037;-36
2023/06/08 05:20:54;;;;;;;15.80;5.30;;;;;;;21.30;nan;101583.63;5045621;28;20064;-36
2023/06/08 05:23:20;;;;;;;17.95;10.10;;;;;;;21.26;nan;101579.50;5044469;28;20044;-36
2023/06/08 05:25:45;;;;;;;11.98;5.85;;;;;;;21.30;nan;101575.59;5039701;28;20380;-36
2023/06/08 05:28:11;;;;;;;15.15;5.65;;;;;;;21.36;nan;101584.88;5045442;28;20398;-36
2023/06/08 05:30:36;;;;;;;16.42;5.05;;;;;;;21.43;nan;101586.03;5049015;28;20459;-36
2023/06/08 05:33:02;;;;;;;15.65;5.70;;;;;;;21.48;nan;101585.59;5039839;28;20036;-35
2023/06/08 05:35:28;;;;;;;18.30;9.43;;;;;;;21.46;nan;101579.53;5041347;28;20590;-36
2023/06/08 05:37:54;;;;;;;16.15;6.45;;;;;;;21.50;nan;101580.09;5043644;28;20032;-36
2023/06/08 05:40:19;;;;;;;15.13;5.00;;;;;;;21.53;nan;101575.34;5050588;28;20449;-36
2023/06/08 05:42:45;;;;;;;13.00;5.03;;;;;;;21.55;nan;101581.41;5044102;28;20056;-36
2023/06/08 05:45:11;;;;;;;9.75;4.63;;;;;;;21.59;nan;101577.44;5046171;28;20093;-35
2023/06/08 05:47:37;;;;;;;11.48;4.53;;;;;;;21.64;nan;101578.88;5042351;28;20037;-36
2023/06/08 05:50:03;;;;;;;10.00;4.53;;;;;;;21.65;nan;101576.03;5040378;28;20533;-35
2023/06/08 05:52:30;;;;;;;30.35;14.82;;;;;;;21.70;nan;101581.00;5046376;28;20039;-36
2023/06/08 05:54:55;;;;;;;17.80;6.20;;;;;;;21.72;nan;101579.88;5042000;28;20045;-36
2023/06/08 05:57:21;;;;;;;7.05;4.35;;;;;;;21.74;nan;101583.25;5047713;28;20031;-36
2023/06/08 05:59:46;;;;;;;11.80;4.85;;;;;;;21.79;nan;101574.78;5045696;28;20033;-36
2023/06/08 06:02:13;;;;;;;13.05;4.45;;;;;;;21.82;nan;101579.88;5042111;28;20041;-36
2023/06/08 06:04:38;;;;;;;10.35;4.25;;;;;;;21.85;nan;101584.94;5044277;28;20064;-35
2023/06/08 06:07:05;;;;;;;11.18;4.90;;;;;;;21.89;nan;101578.28;5045105;28;21930;-35
2023/06/08 06:09:31;;;;;;;8.18;4.60;;;;;;;21.94;nan;101577.84;5045993;28;20087;-35
2023/06/08 06:12:01;;;;;;;11.38;5.18;;;;;;;21.99;nan;101577.44;5047924;28;20099;-36
2023/06/08 06:14:28;;;;;;;14.18;6.00;;;;;;;22.03;nan;101576.16;5043912;28;20450;-36
2023/06/08 06:16:53;;;;;;;12.80;5.28;;;;;;;22.10;nan;101576.41;5048669;28;20032;-36
2023/06/08 06:19:19;;;;;;;13.02;5.00;;;;;;;22.15;nan;101579.53;5042410;28;20026;-36
2023/06/08 06:21:44;;;;;;;13.32;4.95;;;;;;;22.20;nan;101580.78;5041911;28;20055;-36
2023/06/08 06:24:09;;;;;;;10.38;4.47;;;;;;;22.22;nan;101581.47;5042643;28;20537;-36
2023/06/08 06:26:35;;;;;;;12.85;5.22;;;;;;;22.26;nan;101581.19;5051003;28;20037;-36
2023/06/08 06:29:01;;;;;;;13.20;4.57;;;;;;;22.30;nan;101577.25;5044149;28;20029;-36
2023/06/08 06:31:26;;;;;;;11.82;4.55;;;;;;;22.32;nan;101575.22;5042019;28;20029;-36
2023/06/08 06:33:51;;;;;;;14.90;5.13;;;;;;;22.35;nan;101577.63;5043518;28;20036;-36
2023/06/08 06:36:17;;;;;;;14.43;5.30;;;;;;;22.38;nan;101583.56;5047841;28;20048;-36
2023/06/08 06:38:42;;;;;;;14.60;4.85;;;;;;;22.44;nan;101582.16;5045729;28;20031;-36
2023/06/08 06:41:08;;;;;;;11.25;5.00;;;;;;;22.47;nan;101589.91;5046453;28;20032;-36
2023/06/08 06:43:33;;;;;;;11.55;4.80;;;;;;;22.49;nan;101582.56;5046189;28;20074;-36
2023/06/08 06:45:59;;;;;;;11.02;5.05;;;;;;;22.53;nan;101581.28;5043130;28;20047;-36
2023/06/08 06:48:25;;;;;;;10.80;5.55;;;;;;;22.58;nan;101590.72;5043055;28;21191;-37
2023/06/08 06:50:50;;;;;;;10.50;5.78;;;;;;;22.62;nan;101592.09;5037667;28;20411;-37
2023/06/08 06:53:16;;;;;;;10.32;5.95;;;;;;;22.62;nan;101587.59;5017170;28;20040;-36
2023/06/08 06:55:41;;;;;;;9.25;4.65;;;;;;;22.64;nan;101590.97;5039869;28;20104;-36
2023/06/08 06:58:07;;;;;;;9.77;5.32;;;;;;;22.68;nan;101581.66;5045386;28;20115;-36
2023/06/08 07:00:37;;;;;;;18.95;9.30;;;;;;;22.74;nan;101582.88;5042084;28;20028;-36
2023/06/08 07:03:09;;;;;;;14.13;5.93;;;;;;;22.77;nan;101584.41;5044793;28;20037;-36
2023/06/08 07:05:35;;;;;;;9.93;5.90;;;;;;;22.79;nan;101594.00;5041143;28;20033;-36
2023/06/08 07:08:01;;;;;;;12.85;5.90;;;;;;;22.84;nan;101580.13;5042781;28;20040;-36
2023/06/08 07:10:26;;;;;;;9.45;5.65;;;;;;;22.90;nan;101576.03;5046726;28;20028;-36
2023/06/08 07:12:52;;;;;;;10.25;5.47;;;;;;;22.95;nan;101573.72;5046889;28;20029;-36
2023/06/08 07:15:18;;;;;;;10.63;6.45;;;;;;;23.03;nan;101575.66;5041479;28;20510;-36
2023/06/08 07:17:45;;;;;;;12.18;6.32;;;;;;;23.08;nan;101571.53;5044599;28;20053;-36
2023/06/08 07:20:11;;;;;;;12.88;6.05;;;;;;;23.16;nan;101575.31;5047243;28;20039;-36
2023/06/08 07:22:38;;;;;;;11.07;5.85;;;;;;;23.22;nan;101570.19;5045021;28;20035;-36
2023/06/08 07:25:04;;;;;;;11.45;5.57;;;;;;;23.27;nan;101575.13;5043608;28;20037;-36
2023/06/08 07:27:30;;;;;;;8.50;5.00;;;;;;;23.31;nan;101564.91;5044699;28;20032;-38
2023/06/08 07:29:56;;;;;;;8.73;4.78;;;;;;;23.36;nan;101566.16;5034976;28;20044;-36
2023/06/08 07:32:21;;;;;;;13.50;6.10;;;;;;;23.41;nan;101563.84;5043656;28;20036;-36
2023/06/08 07:34:47;;;;;;;10.45;5.50;;;;;;;23.47;nan;101564.22;5041876;28;20031;-36
2023/06/08 07:37:13;;;;;;;13.32;5.40;;;;;;;23.51;nan;101565.63;5042085;28;20037;-36
2023/06/08 07:39:38;;;;;;;14.27;5.72;;;;;;;23.54;nan;101559.91;5039360;28;20037;-37
2023/06/08 07:42:05;;;;;;;12.50;5.55;;;;;;;23.59;nan;101560.31;5037815;28;20025;-36
2023/06/08 07:44:31;;;;;;;11.65;5.85;;;;;;;23.63;nan;101564.38;5037569;28;20048;-36
2023/06/08 07:47:00;;;;;;;10.35;5.28;;;;;;;23.70;nan;101565.44;5042444;28;20399;-36
2023/06/08 07:49:30;;;;;;;12.30;5.55;;;;;;;23.73;nan;101562.44;5041175;28;22060;-36
2023/06/08 07:51:56;;;;;;;13.73;6.97;;;;;;;23.79;nan;101555.59;5035801;28;20100;-37
2023/06/08 07:54:22;;;;;;;11.43;5.10;;;;;;;23.85;nan;101556.81;5043519;28;20049;-37
2023/06/08 07:56:50;;;;;;;8.75;5.15;;;;;;;23.95;nan;101556.72;5046199;28;20028;-36
2023/06/08 07:59:16;;;;;;;11.13;4.65;;;;;;;24.00;nan;101562.50;5041214;28;20079;-37
2023/06/08 08:01:42;;;;;;;8.73;5.00;;;;;;;24.09;nan;101555.34;5039305;28;20032;-36
2023/06/08 08:04:09;;;;;;;9.93;5.45;;;;;;;24.14;nan;101564.63;5036111;28;20080;-35
2023/06/08 08:06:37;;;;;;;8.73;4.80;;;;;;;24.19;nan;101567.69;5041006;28;20051;-36
2023/06/08 08:09:03;;;;;;;10.50;4.70;;;;;;;24.23;nan;101557.44;5042379;28;20064;-35
2023/06/08 08:11:28;;;;;;;8.60;4.90;;;;;;;24.23;nan;101562.81;5041350;28;20061;-35
2023/06/08 08:13:55;;;;;;;10.65;4.90;;;;;;;24.27;nan;101558.81;5044537;28;20033;-37
2023/06/08 08:16:21;;;;;;;12.40;5.20;;;;;;;24.35;nan;101560.72;5039420;28;20024;-36
2023/06/08 08:18:46;;;;;;;9.30;4.50;;;;;;;24.41;nan;101556.53;5045304;28;20093;-36
2023/06/08 08:21:12;;;;;;;10.10;4.80;;;;;;;24.50;nan;101560.94;5043797;28;20033;-35
2023/06/08 08:23:38;;;;;;;10.32;4.97;;;;;;;24.55;nan;101547.84;5043475;28;20079;-36
2023/06/08 08:26:06;;;;;;;11.48;5.00;;;;;;;24.62;nan;101556.94;5046769;28;20036;-36
2023/06/08 08:28:33;;;;;;;11.73;5.32;;;;;;;24.68;nan;101551.94;5041058;28;20942;-36
2023/06/08 08:30:59;;;;;;;7.90;4.20;;;;;;;24.72;nan;101551.47;5040845;28;20099;-36
2023/06/08 08:33:26;;;;;;;10.98;4.78;;;;;;;24.77;nan;101550.97;5046088;28;20033;-36
2023/06/08 08:35:52;;;;;;;11.88;4.63;;;;;;;24.81;nan;101549.66;5039299;28;20589;-36
2023/06/08 08:38:17;;;;;;;12.27;4.57;;;;;;;24.87;nan;101556.22;5036981;28;20045;-36
2023/06/08 08:40:43;;;;;;;8.40;4.60;;;;;;;24.90;nan;101548.66;5043956;28;20041;-36
2023/06/08 08:43:15;;;;;;;8.63;4.82;;;;;;;24.96;nan;101556.09;5038554;28;20033;-36
2023/06/08 08:45:43;;;;;;;7.97;2.88;;;;;;;25.01;nan;101560.16;5040664;28;20115;-36
2023/06/08 08:48:13;;;;;;;10.13;4.78;;;;;;;25.05;nan;101556.97;5039380;28;20538;-36
2023/06/08 08:50:40;;;;;;;14.30;4.35;;;;;;;25.10;nan;101557.31;5041569;28;20530;-36
2023/06/08 08:53:06;;;;;;;9.98;4.88;;;;;;;25.17;nan;101551.25;5045698;28;20041;-37
2023/06/08 08:55:33;;;;;;;11.50;4.30;;;;;;;25.20;nan;101549.06;5044175;28;20060;-36
2023/06/08 08:58:05;;;;;;;4.03;2.92;;;;;;;25.30;nan;101550.78;5042429;28;20464;-36
2023/06/08 09:00:32;;;;;;;8.25;4.10;;;;;;;25.34;nan;101547.59;5044988;28;20096;-36
2023/06/08 09:02:58;;;;;;;9.23;4.80;;;;;;;25.42;nan;101550.31;5045169;28;20037;-36
2023/06/08 09:05:23;;;;;;;8.15;4.65;;;;;;;25.45;nan;101548.28;5037184;28;20155;-36
2023/06/08 09:07:53;;;;;;;9.18;4.68;;;;;;;25.54;nan;101550.81;5042586;28;20104;-36
2023/06/08 09:10:26;;;;;;;12.27;4.47;;;;;;;25.58;nan;101555.88;5041434;28;20119;-37
2023/06/08 09:12:54;;;;;;;9.85;4.47;;;;;;;25.63;nan;101545.44;5039759;28;20031;-36
2023/06/08 09:15:32;;;;;;;13.27;7.10;;;;;;;25.66;nan;101545.94;5042778;28;20036;-36
2023/06/08 09:18:02;;;;;;;9.07;4.80;;;;;;;25.64;nan;101541.75;5043932;28;20029;-37
2023/06/08 09:20:32;;;;;;;7.00;4.35;;;;;;;25.76;nan;101544.91;5044463;28;20032;-37
2023/06/08 09:23:04;;;;;;;8.77;4.65;;;;;;;25.76;nan;101545.78;5039320;28;20459;-36
2023/06/08 09:25:38;;;;;;;9.20;4.47;;;;;;;25.79;nan;101540.00;5043079;28;20037;-37
2023/06/08 09:28:14;;;;;;;6.78;4.15;;;;;;;25.85;nan;101544.75;5038906;28;20056;-36
2023/06/08 09:30:40;;;;;;;8.80;4.90;;;;;;;25.85;nan;101542.03;5043689;28;20032;-36
2023/06/08 09:33:25;;;;;;;9.20;4.75;;;;;;;25.92;nan;101541.38;5043113;28;20025;-36
2023/06/08 09:36:16;;;;;;;7.38;4.50;;;;;;;25.97;nan;101541.69;5045357;28;20032;-36
2023/06/08 09:38:45;;;;;;;10.85;4.18;;;;;;;25.95;nan;101541.00;5038920;28;20024;-35
2023/06/08 09:41:17;;;;;;;10.30;5.93;;;;;;;26.03;nan;101535.63;5043760;28;20036;-36
2023/06/08 09:43:50;;;;;;;10.45;5.40;;;;;;;26.00;nan;101539.50;5044110;28;20110;-36
2023/06/08 09:46:38;;;;;;;8.48;5.22;;;;;;;26.24;nan;101540.47;5032155;28;20104;-36
2023/06/08 09:49:06;;;;;;;8.60;4.32;;;;;;;26.25;nan;101533.22;5047350;28;20036;-36
2023/06/08 09:51:39;;;;;;;6.95;3.85;;;;;;;26.39;nan;101524.44;5044556;28;20201;-36
2023/06/08 09:54:13;;;;;;;9.50;4.28;;;;;;;26.50;nan;101530.44;5045850;28;20479;-36
2023/06/08 09:56:43;;;;;;;6.93;3.78;;;;;;;26.52;nan;101523.03;5046438;28;20041;-36
2023/06/08 09:59:13;;;;;;;5.13;3.65;;;;;;;26.65;nan;101517.88;5036442;28;20033;-36
2023/06/08 10:01:41;;;;;;;5.65;3.70;;;;;;;26.73;nan;101523.22;5039596;28;20025;-36
2023/06/08 10:04:23;;;;;;;11.68;5.18;;;;;;;26.90;nan;101518.63;5049154;28;20092;-36
2023/06/08 10:07:03;;;;;;;9.50;4.05;;;;;;;27.04;nan;101527.81;5044675;28;20021;-36
2023/06/08 10:09:34;;;;;;;8.32;4.63;;;;;;;27.11;nan;101527.09;5046511;28;20045;-37
2023/06/08 10:12:00;;;;;;;9.05;4.25;;;;;;;27.16;nan;101530.09;5047587;28;20032;-37
2023/06/08 10:14:26;;;;;;;13.10;5.03;;;;;;;27.20;nan;101520.63;5044846;28;20028;-37
2023/06/08 10:16:56;;;;;;;8.77;4.47;;;;;;;27.30;nan;101523.91;5045460;28;20024;-36
2023/06/08 10:19:23;;;;;;;9.63;4.53;;;;;;;27.29;nan;101513.28;5044168;28;20029;-36
2023/06/08 10:21:52;;;;;;;8.27;4.70;;;;;;;27.37;nan;101524.88;5043838;28;20142;-36
2023/06/08 10:24:20;;;;;;;8.55;4.47;;;;;;;27.42;nan;101523.50;5044493;28;20024;-37
2023/06/08 10:26:48;;;;;;;6.72;4.40;;;;;;;27.39;nan;101525.53;5033109;28;20032;-37
2023/06/08 10:29:14;;;;;;;10.63;4.40;;;;;;;27.41;nan;101516.41;5041839;28;20055;-37
2023/06/08 10:31:41;;;;;;;7.32;4.10;;;;;;;27.41;nan;101516.41;5041809;28;20025;-36
2023/06/08 10:34:14;;;;;;;13.43;5.18;;;;;;;27.42;nan;101515.38;5041717;28;20112;-38
2023/06/08 10:36:42;;;;;;;7.47;3.97;;;;;;;27.42;nan;101515.38;5045215;28;20459;-36
2023/06/08 10:39:12;;;;;;;13.02;8.73;;;;;;;27.46;nan;101516.72;5041966;28;20029;-36
2023/06/08 10:41:38;;;;;;;8.32;4.43;;;;;;;27.48;nan;101507.44;5042139;28;20035;-37
2023/06/08 10:44:04;;;;;;;8.80;3.90;;;;;;;27.51;nan;101508.91;5042668;28;20029;-36
2023/06/08 10:46:54;;;;;;;8.02;4.55;;;;;;;27.60;nan;101505.13;5047160;28;20040;-37
2023/06/08 10:49:23;;;;;;;6.07;3.97;;;;;;;27.61;nan;101504.06;5043436;28;20037;-37
2023/06/08 10:51:56;;;;;;;9.45;4.65;;;;;;;27.63;nan;101502.03;5047122;28;20443;-37
2023/06/08 10:54:28;;;;;;;10.65;4.35;;;;;;;27.68;nan;101509.63;5025905;28;20033;-37
2023/06/08 10:56:55;;;;;;;6.53;4.05;;;;;;;27.69;nan;101501.31;5044343;28;20574;-36
2023/06/08 10:59:37;;;;;;;10.73;4.10;;;;;;;27.75;nan;101494.31;5042990;28;20035;-36
2023/06/08 11:02:06;;;;;;;7.35;4.03;;;;;;;27.84;nan;101495.06;5038121;28;20037;-36
2023/06/08 11:04:36;;;;;;;9.30;4.78;;;;;;;27.86;nan;101493.03;5037210;28;20132;-36
2023/06/08 11:07:04;;;;;;;10.93;6.00;;;;;;;27.89;nan;101492.66;5038027;28;20036;-36
2023/06/08 11:09:31;;;;;;;7.63;4.68;;;;;;;27.88;nan;101491.00;5044587;28;20036;-36
2023/06/08 11:11:58;;;;;;;6.97;3.50;;;;;;;27.91;nan;101487.88;5040736;28;20056;-36
2023/06/08 11:14:23;;;;;;;9.15;3.90;;;;;;;27.95;nan;101489.22;5045922;28;20021;-36
2023/06/08 11:16:55;;;;;;;8.65;4.00;;;;;;;28.02;nan;101491.19;5044359;28;20040;-36
2023/06/08 11:19:28;;;;;;;9.05;4.63;;;;;;;28.04;nan;101489.13;5047374;28;20060;-37
2023/06/08 11:21:53;;;;;;;8.75;3.83;;;;;;;28.07;nan;101486.03;5036088;28;20026;-36
2023/06/08 11:24:27;;;;;;;8.00;4.07;;;;;;;28.16;nan;101482.25;5038161;28;20036;-36
2023/06/08 11:26:59;;;;;;;8.82;4.40;;;;;;;28.20;nan;101480.84;5040761;28;20132;-37
2023/06/08 11:29:27;;;;;;;7.28;4.32;;;;;;;28.27;nan;101464.69;5038500;28;20059;-37
2023/06/08 11:32:10;;;;;;;8.23;4.20;;;;;;;28.36;nan;101473.56;5037584;28;20041;-36
2023/06/08 11:34:37;;;;;;;12.43;5.22;;;;;;;28.39;nan;101468.59;5044348;28;20110;-37
2023/06/08 11:37:03;;;;;;;17.17;6.78;;;;;;;28.39;nan;101459.63;5040193;28;20575;-36
2023/06/08 11:39:33;;;;;;;9.77;4.20;;;;;;;28.38;nan;101460.66;5037858;28;20112;-37
2023/06/08 11:41:59;;;;;;;8.90;3.95;;;;;;;28.46;nan;101460.56;5039104;28;20037;-37